Погода Сан-Жуан-ди-Меритина неделю

Рио-де-Жанейро, Бразилия

17 - 23 июня
  • 17июня
    Сегодня
    +17°
    +33°
    Ясно и безоблачно
    ВремяПогодаТемператураВлажностьДавлениеВетер, м/сВероятность осадков
    00:00Небольшая облачность+21°C77 %760 мм0.8 м/с5 %
    03:00Ясно и безоблачно+19°C81 %759 мм1.6 м/с5 %
    06:00Ясно и безоблачно+19°C77 %759 мм1.0 м/с5 %
    09:00Ясно и безоблачно+25°C61 %760 мм1.6 м/с5 %
    12:00Ясно и безоблачно+31°C39 %759 мм4.2 м/с5 %
    15:00Ясно и безоблачно+32°C37 %757 мм3.2 м/с5 %
    18:00Ясно и безоблачно+25°C58 %758 мм1.6 м/с5 %
    21:00Ясно и безоблачно+23°C64 %759 мм0.5 м/с5 %
  • 18июня
    Вторник
    +18°
    +33°
    Небольшая облачность
    ВремяПогодаТемператураВлажностьДавлениеВетер, м/сВероятность осадков
    00:00Ясно и безоблачно+20°C81 %759 мм1.0 м/с5 %
    03:00Практически безоблачно+18°C82 %758 мм1.0 м/с5 %
    06:00Ясно и безоблачно+18°C73 %758 мм0.9 м/с5 %
    09:00Ясно и безоблачно+25°C58 %760 мм1.4 м/с5 %
    12:00Небольшая облачность+31°C37 %759 мм4.4 м/с5 %
    15:00Небольшая облачность+33°C37 %757 мм3.6 м/с5 %
    18:00Небольшая облачность+25°C56 %758 мм1.2 м/с5 %
    21:00Ясно и безоблачно+25°C54 %759 мм0.7 м/с5 %
  • 19июня
    Среда
    +18°
    +34°
    Ясно и безоблачно
    ВремяПогодаТемператураВлажностьДавлениеВетер, м/сВероятность осадков
    00:00Ясно и безоблачно+23°C66 %759 мм0.5 м/с5 %
    03:00Ясно и безоблачно+20°C75 %759 мм0.8 м/с5 %
    06:00Ясно и безоблачно+19°C79 %759 мм0.9 м/с5 %
    09:00Ясно и безоблачно+25°C60 %760 мм1.1 м/с5 %
    12:00Ясно и безоблачно+32°C40 %759 мм3.7 м/с5 %
    15:00Ясно и безоблачно+33°C36 %758 мм3.2 м/с5 %
    18:00Ясно и безоблачно+25°C62 %759 мм1.6 м/с5 %
    21:00Ясно и безоблачно+23°C67 %760 мм1.0 м/с5 %
  • 20июня
    Четверг
    +19°
    +34°
    Ясно и безоблачно
    ВремяПогодаТемператураВлажностьДавлениеВетер, м/сВероятность осадков
    00:00Ясно и безоблачно+23°C73 %760 мм1.1 м/с5 %
    03:00Ясно и безоблачно+22°C81 %760 мм1.0 м/с5 %
    06:00Ясно и безоблачно+19°C86 %760 мм1.2 м/с5 %
    09:00Ясно и безоблачно+26°C58 %761 мм1.2 м/с5 %
    12:00Ясно и безоблачно+32°C38 %760 мм2.9 м/с5 %
    15:00Ясно и безоблачно+32°C33 %759 мм2.2 м/с5 %
    18:00Небольшая облачность+24°C57 %759 мм1.4 м/с5 %
    21:00Ясно и безоблачно+24°C53 %761 мм0.6 м/с5 %
Мы используем cookies
Соглашаюсь